sensor_id;sensor_type;location;lat;lon;timestamp;P1;durP1;ratioP1;P2;durP2;ratioP2
60718;SDS011;46567;51.660;5.824;2024-01-15T00:02:33;10.7;;;5.8;;
60718;SDS011;46567;51.660;5.824;2024-01-15T00:07:33;10.9;;;5.5;;
60718;SDS011;46567;51.660;5.824;2024-01-15T00:12:33;13.4;;;5.2;;
60718;SDS011;46567;51.660;5.824;2024-01-15T00:17:33;13.4;;;5.0;;
60718;SDS011;46567;51.660;5.824;2024-01-15T00:22:33;9.9;;;4.5;;
60718;SDS011;46567;51.660;5.824;2024-01-15T00:27:33;8.4;;;4.1;;
60718;SDS011;46567;51.660;5.824;2024-01-15T00:32:33;5.9;;;3.3;;
60718;SDS011;46567;51.660;5.824;2024-01-15T00:37:33;7.3;;;3.7;;
60718;SDS011;46567;51.660;5.824;2024-01-15T00:42:40;9.9;;;3.7;;
60718;SDS011;46567;51.660;5.824;2024-01-15T00:47:40;6.6;;;3.3;;
60718;SDS011;46567;51.660;5.824;2024-01-15T00:52:33;5.2;;;3.3;;
60718;SDS011;46567;51.660;5.824;2024-01-15T00:57:33;4.5;;;3.0;;
60718;SDS011;46567;51.660;5.824;2024-01-15T01:02:33;4.8;;;3.3;;
60718;SDS011;46567;51.660;5.824;2024-01-15T01:07:33;4.5;;;3.2;;
60718;SDS011;46567;51.660;5.824;2024-01-15T01:12:33;4.6;;;2.7;;
60718;SDS011;46567;51.660;5.824;2024-01-15T01:17:33;4.9;;;2.7;;
60718;SDS011;46567;51.660;5.824;2024-01-15T01:22:33;6.5;;;3.1;;
60718;SDS011;46567;51.660;5.824;2024-01-15T01:27:33;3.1;;;2.5;;
60718;SDS011;46567;51.660;5.824;2024-01-15T01:32:33;6.7;;;2.7;;
60718;SDS011;46567;51.660;5.824;2024-01-15T01:37:33;6.1;;;3.0;;
60718;SDS011;46567;51.660;5.824;2024-01-15T01:42:33;5.9;;;3.7;;
60718;SDS011;46567;51.660;5.824;2024-01-15T01:47:33;5.3;;;3.8;;
60718;SDS011;46567;51.660;5.824;2024-01-15T01:52:33;7.7;;;3.5;;
60718;SDS011;46567;51.660;5.824;2024-01-15T01:57:33;9.5;;;3.6;;
60718;SDS011;46567;51.660;5.824;2024-01-15T02:02:33;8.3;;;3.0;;
60718;SDS011;46567;51.660;5.824;2024-01-15T02:07:34;5.9;;;3.1;;
60718;SDS011;46567;51.660;5.824;2024-01-15T02:12:33;6.7;;;2.7;;
60718;SDS011;46567;51.660;5.824;2024-01-15T02:17:33;5.2;;;2.6;;
60718;SDS011;46567;51.660;5.824;2024-01-15T02:22:33;5.5;;;2.4;;
60718;SDS011;46567;51.660;5.824;2024-01-15T02:27:33;3.6;;;1.7;;
60718;SDS011;46567;51.660;5.824;2024-01-15T02:32:33;3.3;;;1.9;;
60718;SDS011;46567;51.660;5.824;2024-01-15T02:37:33;4.2;;;1.7;;
60718;SDS011;46567;51.660;5.824;2024-01-15T02:42:33;2.4;;;1.1;;
60718;SDS011;46567;51.660;5.824;2024-01-15T02:47:33;2.8;;;1.3;;
60718;SDS011;46567;51.660;5.824;2024-01-15T02:52:33;2.0;;;1.0;;
60718;SDS011;46567;51.660;5.824;2024-01-15T02:57:33;1.7;;;1.3;;
60718;SDS011;46567;51.660;5.824;2024-01-15T03:02:33;7.9;;;1.6;;
60718;SDS011;46567;51.660;5.824;2024-01-15T03:07:33;3.2;;;1.0;;
60718;SDS011;46567;51.660;5.824;2024-01-15T03:12:33;3.1;;;1.1;;
60718;SDS011;46567;51.660;5.824;2024-01-15T03:17:33;3.6;;;1.3;;
60718;SDS011;46567;51.660;5.824;2024-01-15T03:22:33;3.8;;;1.2;;
60718;SDS011;46567;51.660;5.824;2024-01-15T03:27:33;1.6;;;1.0;;
60718;SDS011;46567;51.660;5.824;2024-01-15T03:32:33;2.4;;;1.2;;
60718;SDS011;46567;51.660;5.824;2024-01-15T03:37:33;5.8;;;1.2;;
60718;SDS011;46567;51.660;5.824;2024-01-15T03:47:33;3.6;;;1.2;;
60718;SDS011;46567;51.660;5.824;2024-01-15T03:52:33;3.4;;;0.9;;
60718;SDS011;46567;51.660;5.824;2024-01-15T03:57:33;2.4;;;1.2;;
60718;SDS011;46567;51.660;5.824;2024-01-15T04:02:33;1.9;;;1.0;;
60718;SDS011;46567;51.660;5.824;2024-01-15T04:07:33;2.4;;;0.6;;
60718;SDS011;46567;51.660;5.824;2024-01-15T04:12:33;4.3;;;1.2;;
60718;SDS011;46567;51.660;5.824;2024-01-15T04:17:33;2.8;;;1.0;;
60718;SDS011;46567;51.660;5.824;2024-01-15T04:22:33;5.6;;;0.9;;
60718;SDS011;46567;51.660;5.824;2024-01-15T04:27:33;2.4;;;0.8;;
60718;SDS011;46567;51.660;5.824;2024-01-15T04:32:33;5.2;;;1.6;;
60718;SDS011;46567;51.660;5.824;2024-01-15T04:37:33;2.8;;;0.7;;
60718;SDS011;46567;51.660;5.824;2024-01-15T04:42:33;2.2;;;0.8;;
60718;SDS011;46567;51.660;5.824;2024-01-15T04:47:33;10.0;;;0.8;;
60718;SDS011;46567;51.660;5.824;2024-01-15T04:52:33;1.7;;;0.7;;
60718;SDS011;46567;51.660;5.824;2024-01-15T04:57:33;2.1;;;0.8;;
60718;SDS011;46567;51.660;5.824;2024-01-15T05:02:33;2.3;;;0.9;;
60718;SDS011;46567;51.660;5.824;2024-01-15T05:07:33;5.4;;;1.4;;
60718;SDS011;46567;51.660;5.824;2024-01-15T05:12:33;7.1;;;1.1;;
60718;SDS011;46567;51.660;5.824;2024-01-15T05:17:33;2.4;;;1.1;;
60718;SDS011;46567;51.660;5.824;2024-01-15T05:22:33;2.8;;;1.1;;
60718;SDS011;46567;51.660;5.824;2024-01-15T05:27:33;3.4;;;0.8;;
60718;SDS011;46567;51.660;5.824;2024-01-15T05:32:33;5.1;;;1.2;;
60718;SDS011;46567;51.660;5.824;2024-01-15T05:37:33;1.7;;;0.7;;
60718;SDS011;46567;51.660;5.824;2024-01-15T05:42:33;1.1;;;0.5;;
60718;SDS011;46567;51.660;5.824;2024-01-15T05:47:33;1.6;;;0.9;;
60718;SDS011;46567;51.660;5.824;2024-01-15T05:52:33;2.5;;;1.1;;
60718;SDS011;46567;51.660;5.824;2024-01-15T06:02:33;2.7;;;1.3;;
60718;SDS011;46567;51.660;5.824;2024-01-15T06:07:33;1.8;;;1.1;;
60718;SDS011;46567;51.660;5.824;2024-01-15T06:12:33;3.8;;;1.0;;
60718;SDS011;46567;51.660;5.824;2024-01-15T06:17:33;3.3;;;1.0;;
60718;SDS011;46567;51.660;5.824;2024-01-15T06:22:33;2.4;;;0.9;;
60718;SDS011;46567;51.660;5.824;2024-01-15T06:27:33;6.5;;;1.3;;
60718;SDS011;46567;51.660;5.824;2024-01-15T06:32:33;2.7;;;1.5;;
60718;SDS011;46567;51.660;5.824;2024-01-15T06:37:33;4.8;;;1.5;;
60718;SDS011;46567;51.660;5.824;2024-01-15T06:47:33;4.1;;;1.6;;
60718;SDS011;46567;51.660;5.824;2024-01-15T06:52:33;3.4;;;1.4;;
60718;SDS011;46567;51.660;5.824;2024-01-15T06:57:33;3.9;;;1.7;;
60718;SDS011;46567;51.660;5.824;2024-01-15T07:02:33;6.3;;;1.8;;
60718;SDS011;46567;51.660;5.824;2024-01-15T07:07:33;2.3;;;1.6;;
60718;SDS011;46567;51.660;5.824;2024-01-15T07:12:33;4.5;;;1.7;;
60718;SDS011;46567;51.660;5.824;2024-01-15T07:17:33;2.8;;;1.7;;
60718;SDS011;46567;51.660;5.824;2024-01-15T07:22:33;6.5;;;2.4;;
60718;SDS011;46567;51.660;5.824;2024-01-15T07:27:33;4.5;;;2.3;;
60718;SDS011;46567;51.660;5.824;2024-01-15T07:32:33;4.6;;;2.3;;
60718;SDS011;46567;51.660;5.824;2024-01-15T07:37:33;3.8;;;2.4;;
60718;SDS011;46567;51.660;5.824;2024-01-15T07:42:33;4.9;;;2.4;;
60718;SDS011;46567;51.660;5.824;2024-01-15T07:47:33;4.3;;;2.5;;
60718;SDS011;46567;51.660;5.824;2024-01-15T07:52:33;5.2;;;3.2;;
60718;SDS011;46567;51.660;5.824;2024-01-15T07:57:33;3.7;;;2.5;;
60718;SDS011;46567;51.660;5.824;2024-01-15T08:02:33;3.9;;;2.5;;
60718;SDS011;46567;51.660;5.824;2024-01-15T08:07:33;6.1;;;2.9;;
60718;SDS011;46567;51.660;5.824;2024-01-15T08:12:33;3.5;;;2.4;;
60718;SDS011;46567;51.660;5.824;2024-01-15T08:17:33;3.7;;;1.8;;
60718;SDS011;46567;51.660;5.824;2024-01-15T08:22:33;4.2;;;2.0;;
60718;SDS011;46567;51.660;5.824;2024-01-15T08:27:33;6.6;;;2.2;;
60718;SDS011;46567;51.660;5.824;2024-01-15T08:32:33;3.0;;;1.7;;
60718;SDS011;46567;51.660;5.824;2024-01-15T08:37:33;3.4;;;2.1;;
60718;SDS011;46567;51.660;5.824;2024-01-15T08:42:33;3.6;;;2.3;;
60718;SDS011;46567;51.660;5.824;2024-01-15T08:47:33;4.2;;;2.5;;
60718;SDS011;46567;51.660;5.824;2024-01-15T08:52:33;2.4;;;1.8;;
60718;SDS011;46567;51.660;5.824;2024-01-15T08:57:33;3.5;;;1.4;;
60718;SDS011;46567;51.660;5.824;2024-01-15T09:02:33;2.2;;;1.9;;
60718;SDS011;46567;51.660;5.824;2024-01-15T09:07:33;3.5;;;1.3;;
60718;SDS011;46567;51.660;5.824;2024-01-15T09:12:33;1.0;;;0.9;;
60718;SDS011;46567;51.660;5.824;2024-01-15T09:17:33;1.4;;;1.0;;
60718;SDS011;46567;51.660;5.824;2024-01-15T09:22:33;1.4;;;0.8;;
60718;SDS011;46567;51.660;5.824;2024-01-15T09:27:33;1.8;;;1.3;;
60718;SDS011;46567;51.660;5.824;2024-01-15T09:32:33;5.9;;;3.0;;
60718;SDS011;46567;51.660;5.824;2024-01-15T09:37:33;2.3;;;1.7;;
60718;SDS011;46567;51.660;5.824;2024-01-15T09:42:33;2.0;;;1.5;;
60718;SDS011;46567;51.660;5.824;2024-01-15T09:47:33;4.3;;;1.9;;
60718;SDS011;46567;51.660;5.824;2024-01-15T09:52:34;8.2;;;3.1;;
60718;SDS011;46567;51.660;5.824;2024-01-15T09:57:33;3.8;;;2.4;;
60718;SDS011;46567;51.660;5.824;2024-01-15T10:02:33;2.5;;;2.2;;
60718;SDS011;46567;51.660;5.824;2024-01-15T10:07:35;6.5;;;2.9;;
60718;SDS011;46567;51.660;5.824;2024-01-15T10:12:33;4.3;;;3.5;;
60718;SDS011;46567;51.660;5.824;2024-01-15T10:17:33;5.2;;;3.8;;
60718;SDS011;46567;51.660;5.824;2024-01-15T10:22:33;4.0;;;3.0;;
60718;SDS011;46567;51.660;5.824;2024-01-15T10:27:33;4.2;;;2.6;;
60718;SDS011;46567;51.660;5.824;2024-01-15T10:32:33;3.4;;;2.4;;
60718;SDS011;46567;51.660;5.824;2024-01-15T10:37:33;2.4;;;2.1;;
60718;SDS011;46567;51.660;5.824;2024-01-15T10:42:33;2.3;;;1.5;;
60718;SDS011;46567;51.660;5.824;2024-01-15T10:47:33;4.7;;;1.1;;
60718;SDS011;46567;51.660;5.824;2024-01-15T10:52:33;1.6;;;0.9;;
60718;SDS011;46567;51.660;5.824;2024-01-15T10:57:33;2.8;;;1.1;;
60718;SDS011;46567;51.660;5.824;2024-01-15T11:02:35;1.9;;;0.8;;
60718;SDS011;46567;51.660;5.824;2024-01-15T11:07:33;3.1;;;0.9;;
60718;SDS011;46567;51.660;5.824;2024-01-15T11:12:33;1.5;;;0.9;;
60718;SDS011;46567;51.660;5.824;2024-01-15T11:18:00;1.0;;;0.7;;
60718;SDS011;46567;51.660;5.824;2024-01-15T11:22:50;3.8;;;1.1;;
60718;SDS011;46567;51.660;5.824;2024-01-15T11:27:46;2.3;;;0.6;;
60718;SDS011;46567;51.660;5.824;2024-01-15T11:32:33;6.0;;;1.0;;
60718;SDS011;46567;51.660;5.824;2024-01-15T11:37:57;1.7;;;0.8;;
60718;SDS011;46567;51.660;5.824;2024-01-15T11:42:33;3.0;;;1.0;;
60718;SDS011;46567;51.660;5.824;2024-01-15T11:48:06;4.3;;;1.3;;
60718;SDS011;46567;51.660;5.824;2024-01-15T11:52:35;2.4;;;1.4;;
60718;SDS011;46567;51.660;5.824;2024-01-15T11:57:41;3.4;;;1.2;;
60718;SDS011;46567;51.660;5.824;2024-01-15T12:02:33;3.1;;;1.5;;
60718;SDS011;46567;51.660;5.824;2024-01-15T12:07:33;2.9;;;1.5;;
60718;SDS011;46567;51.660;5.824;2024-01-15T12:12:53;3.0;;;1.4;;
60718;SDS011;46567;51.660;5.824;2024-01-15T12:17:33;2.1;;;1.5;;
60718;SDS011;46567;51.660;5.824;2024-01-15T12:22:33;3.9;;;1.4;;
60718;SDS011;46567;51.660;5.824;2024-01-15T12:32:34;1.4;;;0.8;;
60718;SDS011;46567;51.660;5.824;2024-01-15T12:37:34;2.7;;;0.8;;
60718;SDS011;46567;51.660;5.824;2024-01-15T12:42:33;3.4;;;1.0;;
60718;SDS011;46567;51.660;5.824;2024-01-15T12:47:33;1.7;;;0.8;;
60718;SDS011;46567;51.660;5.824;2024-01-15T12:52:33;1.3;;;0.6;;
60718;SDS011;46567;51.660;5.824;2024-01-15T12:57:34;2.0;;;0.9;;
60718;SDS011;46567;51.660;5.824;2024-01-15T13:02:33;3.4;;;0.5;;
60718;SDS011;46567;51.660;5.824;2024-01-15T13:07:33;1.7;;;0.6;;
60718;SDS011;46567;51.660;5.824;2024-01-15T13:12:33;1.8;;;0.5;;
60718;SDS011;46567;51.660;5.824;2024-01-15T13:17:33;2.9;;;0.6;;
60718;SDS011;46567;51.660;5.824;2024-01-15T13:22:33;2.0;;;0.8;;
60718;SDS011;46567;51.660;5.824;2024-01-15T13:27:33;2.0;;;1.1;;
60718;SDS011;46567;51.660;5.824;2024-01-15T13:32:33;2.1;;;0.9;;
60718;SDS011;46567;51.660;5.824;2024-01-15T13:37:34;3.4;;;1.3;;
60718;SDS011;46567;51.660;5.824;2024-01-15T13:42:33;2.7;;;1.1;;
60718;SDS011;46567;51.660;5.824;2024-01-15T13:47:33;2.5;;;1.2;;
60718;SDS011;46567;51.660;5.824;2024-01-15T13:52:33;2.4;;;1.1;;
60718;SDS011;46567;51.660;5.824;2024-01-15T13:57:33;2.8;;;0.9;;
60718;SDS011;46567;51.660;5.824;2024-01-15T14:02:33;2.3;;;0.8;;
60718;SDS011;46567;51.660;5.824;2024-01-15T14:07:33;3.7;;;0.8;;
60718;SDS011;46567;51.660;5.824;2024-01-15T14:12:33;1.9;;;0.6;;
60718;SDS011;46567;51.660;5.824;2024-01-15T14:17:33;1.6;;;0.6;;
60718;SDS011;46567;51.660;5.824;2024-01-15T14:22:33;0.8;;;0.5;;
60718;SDS011;46567;51.660;5.824;2024-01-15T14:27:33;2.1;;;1.1;;
60718;SDS011;46567;51.660;5.824;2024-01-15T14:32:33;4.1;;;1.2;;
60718;SDS011;46567;51.660;5.824;2024-01-15T14:37:33;6.4;;;1.3;;
60718;SDS011;46567;51.660;5.824;2024-01-15T14:42:33;3.8;;;1.2;;
60718;SDS011;46567;51.660;5.824;2024-01-15T14:47:33;7.7;;;1.9;;
60718;SDS011;46567;51.660;5.824;2024-01-15T14:52:33;3.1;;;1.5;;
60718;SDS011;46567;51.660;5.824;2024-01-15T14:57:33;4.9;;;1.8;;
60718;SDS011;46567;51.660;5.824;2024-01-15T15:02:33;2.6;;;1.2;;
60718;SDS011;46567;51.660;5.824;2024-01-15T15:07:33;2.1;;;1.1;;
60718;SDS011;46567;51.660;5.824;2024-01-15T15:12:33;3.4;;;1.0;;
60718;SDS011;46567;51.660;5.824;2024-01-15T15:17:33;4.3;;;1.1;;
60718;SDS011;46567;51.660;5.824;2024-01-15T15:22:33;3.2;;;1.0;;
60718;SDS011;46567;51.660;5.824;2024-01-15T15:27:33;2.9;;;1.2;;
60718;SDS011;46567;51.660;5.824;2024-01-15T15:32:33;2.8;;;1.5;;
60718;SDS011;46567;51.660;5.824;2024-01-15T15:37:33;4.0;;;1.4;;
60718;SDS011;46567;51.660;5.824;2024-01-15T15:42:33;5.0;;;2.3;;
60718;SDS011;46567;51.660;5.824;2024-01-15T15:47:33;9.7;;;2.1;;
60718;SDS011;46567;51.660;5.824;2024-01-15T15:52:33;6.2;;;2.6;;
60718;SDS011;46567;51.660;5.824;2024-01-15T15:57:33;5.7;;;2.0;;
60718;SDS011;46567;51.660;5.824;2024-01-15T16:02:33;4.0;;;1.5;;
60718;SDS011;46567;51.660;5.824;2024-01-15T16:07:33;8.0;;;2.4;;
60718;SDS011;46567;51.660;5.824;2024-01-15T16:12:33;4.3;;;1.6;;
60718;SDS011;46567;51.660;5.824;2024-01-15T16:17:33;10.5;;;2.4;;
60718;SDS011;46567;51.660;5.824;2024-01-15T16:22:33;7.1;;;1.8;;
60718;SDS011;46567;51.660;5.824;2024-01-15T16:27:33;6.6;;;1.2;;
60718;SDS011;46567;51.660;5.824;2024-01-15T16:32:33;3.7;;;1.1;;
60718;SDS011;46567;51.660;5.824;2024-01-15T16:37:33;6.9;;;1.6;;
60718;SDS011;46567;51.660;5.824;2024-01-15T16:42:33;5.8;;;1.2;;
60718;SDS011;46567;51.660;5.824;2024-01-15T16:47:33;4.5;;;1.5;;
60718;SDS011;46567;51.660;5.824;2024-01-15T16:52:33;9.3;;;1.2;;
60718;SDS011;46567;51.660;5.824;2024-01-15T16:57:33;4.8;;;1.6;;
60718;SDS011;46567;51.660;5.824;2024-01-15T17:02:33;6.4;;;1.2;;
60718;SDS011;46567;51.660;5.824;2024-01-15T17:07:33;7.3;;;1.1;;
60718;SDS011;46567;51.660;5.824;2024-01-15T17:12:33;2.2;;;0.9;;
60718;SDS011;46567;51.660;5.824;2024-01-15T17:17:33;2.7;;;1.2;;
60718;SDS011;46567;51.660;5.824;2024-01-15T17:22:33;3.9;;;0.8;;
60718;SDS011;46567;51.660;5.824;2024-01-15T17:27:33;5.0;;;1.6;;
60718;SDS011;46567;51.660;5.824;2024-01-15T17:32:33;2.7;;;0.9;;
60718;SDS011;46567;51.660;5.824;2024-01-15T17:37:33;3.9;;;1.3;;
60718;SDS011;46567;51.660;5.824;2024-01-15T17:42:33;6.5;;;1.2;;
60718;SDS011;46567;51.660;5.824;2024-01-15T17:47:33;7.0;;;1.2;;
60718;SDS011;46567;51.660;5.824;2024-01-15T17:57:33;6.5;;;1.1;;
60718;SDS011;46567;51.660;5.824;2024-01-15T18:02:33;5.2;;;1.3;;
60718;SDS011;46567;51.660;5.824;2024-01-15T18:07:33;4.6;;;1.2;;
60718;SDS011;46567;51.660;5.824;2024-01-15T18:12:33;7.2;;;2.4;;
60718;SDS011;46567;51.660;5.824;2024-01-15T18:17:33;5.0;;;1.5;;
60718;SDS011;46567;51.660;5.824;2024-01-15T18:22:33;4.6;;;1.0;;
60718;SDS011;46567;51.660;5.824;2024-01-15T18:27:33;3.0;;;1.2;;
60718;SDS011;46567;51.660;5.824;2024-01-15T18:32:33;6.0;;;1.1;;
60718;SDS011;46567;51.660;5.824;2024-01-15T18:37:33;3.9;;;0.9;;
60718;SDS011;46567;51.660;5.824;2024-01-15T18:42:33;6.1;;;1.4;;
60718;SDS011;46567;51.660;5.824;2024-01-15T18:47:33;2.7;;;1.0;;
60718;SDS011;46567;51.660;5.824;2024-01-15T18:52:33;6.0;;;1.1;;
60718;SDS011;46567;51.660;5.824;2024-01-15T18:57:33;4.6;;;1.5;;
60718;SDS011;46567;51.660;5.824;2024-01-15T19:02:33;5.9;;;1.2;;
60718;SDS011;46567;51.660;5.824;2024-01-15T19:07:33;3.2;;;1.1;;
60718;SDS011;46567;51.660;5.824;2024-01-15T19:12:33;2.7;;;1.1;;
60718;SDS011;46567;51.660;5.824;2024-01-15T19:17:33;5.7;;;1.4;;
60718;SDS011;46567;51.660;5.824;2024-01-15T19:22:33;6.1;;;1.2;;
60718;SDS011;46567;51.660;5.824;2024-01-15T19:27:33;4.6;;;1.3;;
60718;SDS011;46567;51.660;5.824;2024-01-15T19:32:33;4.2;;;1.3;;
60718;SDS011;46567;51.660;5.824;2024-01-15T19:37:33;2.8;;;1.6;;
60718;SDS011;46567;51.660;5.824;2024-01-15T19:42:33;3.3;;;1.3;;
60718;SDS011;46567;51.660;5.824;2024-01-15T19:47:33;4.3;;;2.0;;
60718;SDS011;46567;51.660;5.824;2024-01-15T19:52:33;5.1;;;1.8;;
60718;SDS011;46567;51.660;5.824;2024-01-15T19:57:33;6.4;;;2.3;;
60718;SDS011;46567;51.660;5.824;2024-01-15T20:02:33;4.9;;;2.2;;
60718;SDS011;46567;51.660;5.824;2024-01-15T20:07:33;5.3;;;2.1;;
60718;SDS011;46567;51.660;5.824;2024-01-15T20:12:33;4.2;;;2.1;;
60718;SDS011;46567;51.660;5.824;2024-01-15T20:22:33;5.0;;;2.0;;
60718;SDS011;46567;51.660;5.824;2024-01-15T20:27:33;5.4;;;1.7;;
60718;SDS011;46567;51.660;5.824;2024-01-15T20:32:33;4.3;;;1.8;;
60718;SDS011;46567;51.660;5.824;2024-01-15T20:37:33;3.1;;;1.3;;
60718;SDS011;46567;51.660;5.824;2024-01-15T20:42:33;5.7;;;1.5;;
60718;SDS011;46567;51.660;5.824;2024-01-15T20:47:33;7.6;;;2.1;;
60718;SDS011;46567;51.660;5.824;2024-01-15T20:52:33;8.0;;;2.4;;
60718;SDS011;46567;51.660;5.824;2024-01-15T20:57:33;4.0;;;2.6;;
60718;SDS011;46567;51.660;5.824;2024-01-15T21:02:33;3.3;;;1.9;;
60718;SDS011;46567;51.660;5.824;2024-01-15T21:07:33;6.2;;;2.1;;
60718;SDS011;46567;51.660;5.824;2024-01-15T21:12:33;5.3;;;3.1;;
60718;SDS011;46567;51.660;5.824;2024-01-15T21:17:33;5.7;;;3.7;;
60718;SDS011;46567;51.660;5.824;2024-01-15T21:22:33;9.5;;;3.4;;
60718;SDS011;46567;51.660;5.824;2024-01-15T21:27:33;8.1;;;3.8;;
60718;SDS011;46567;51.660;5.824;2024-01-15T21:32:33;9.0;;;4.3;;
60718;SDS011;46567;51.660;5.824;2024-01-15T21:37:33;5.5;;;4.1;;
60718;SDS011;46567;51.660;5.824;2024-01-15T21:42:33;11.3;;;5.1;;
60718;SDS011;46567;51.660;5.824;2024-01-15T21:47:35;10.2;;;5.5;;
60718;SDS011;46567;51.660;5.824;2024-01-15T21:52:33;11.6;;;4.7;;
60718;SDS011;46567;51.660;5.824;2024-01-15T21:57:33;11.2;;;4.9;;
60718;SDS011;46567;51.660;5.824;2024-01-15T22:02:33;16.1;;;4.6;;
60718;SDS011;46567;51.660;5.824;2024-01-15T22:07:33;8.0;;;4.3;;
60718;SDS011;46567;51.660;5.824;2024-01-15T22:12:33;9.2;;;4.5;;
60718;SDS011;46567;51.660;5.824;2024-01-15T22:17:33;7.9;;;3.5;;
60718;SDS011;46567;51.660;5.824;2024-01-15T22:22:33;6.7;;;3.1;;
60718;SDS011;46567;51.660;5.824;2024-01-15T22:27:33;10.7;;;2.8;;
60718;SDS011;46567;51.660;5.824;2024-01-15T22:32:33;6.6;;;3.0;;
60718;SDS011;46567;51.660;5.824;2024-01-15T22:37:33;6.4;;;2.6;;
60718;SDS011;46567;51.660;5.824;2024-01-15T22:42:33;4.0;;;2.5;;
60718;SDS011;46567;51.660;5.824;2024-01-15T22:47:33;9.0;;;2.8;;
60718;SDS011;46567;51.660;5.824;2024-01-15T22:52:33;5.3;;;2.8;;
60718;SDS011;46567;51.660;5.824;2024-01-15T22:57:33;5.7;;;2.3;;
60718;SDS011;46567;51.660;5.824;2024-01-15T23:02:34;6.5;;;2.5;;
60718;SDS011;46567;51.660;5.824;2024-01-15T23:07:33;8.5;;;2.7;;
60718;SDS011;46567;51.660;5.824;2024-01-15T23:12:33;4.2;;;2.4;;
60718;SDS011;46567;51.660;5.824;2024-01-15T23:17:33;5.2;;;2.7;;
60718;SDS011;46567;51.660;5.824;2024-01-15T23:22:33;4.8;;;3.2;;
60718;SDS011;46567;51.660;5.824;2024-01-15T23:27:33;5.9;;;3.2;;
60718;SDS011;46567;51.660;5.824;2024-01-15T23:32:33;6.6;;;3.7;;
60718;SDS011;46567;51.660;5.824;2024-01-15T23:37:33;8.0;;;3.8;;
60718;SDS011;46567;51.660;5.824;2024-01-15T23:42:33;6.8;;;3.6;;
60718;SDS011;46567;51.660;5.824;2024-01-15T23:47:33;7.9;;;3.7;;
60718;SDS011;46567;51.660;5.824;2024-01-15T23:52:33;7.0;;;3.2;;
60718;SDS011;46567;51.660;5.824;2024-01-15T23:57:33;6.5;;;2.8;;
